sensor_id;sensor_type;location;lat;lon;timestamp;P1;durP1;ratioP1;P2;durP2;ratioP2
33844;SDS011;20145;43.118;25.694;2023-09-07T00:00:39;6.70;;;4.47;;
33844;SDS011;20145;43.118;25.694;2023-09-07T00:03:04;8.63;;;4.13;;
33844;SDS011;20145;43.118;25.694;2023-09-07T00:05:30;8.05;;;4.10;;
33844;SDS011;20145;43.118;25.694;2023-09-07T00:07:56;7.30;;;4.35;;
33844;SDS011;20145;43.118;25.694;2023-09-07T00:10:22;6.57;;;4.38;;
33844;SDS011;20145;43.118;25.694;2023-09-07T00:12:48;5.90;;;4.18;;
33844;SDS011;20145;43.118;25.694;2023-09-07T00:15:14;7.70;;;4.70;;
33844;SDS011;20145;43.118;25.694;2023-09-07T00:17:39;6.50;;;4.65;;
33844;SDS011;20145;43.118;25.694;2023-09-07T00:20:05;8.43;;;4.13;;
33844;SDS011;20145;43.118;25.694;2023-09-07T00:22:39;4.35;;;3.92;;
33844;SDS011;20145;43.118;25.694;2023-09-07T00:25:05;4.07;;;3.67;;
33844;SDS011;20145;43.118;25.694;2023-09-07T00:27:32;6.72;;;4.57;;
33844;SDS011;20145;43.118;25.694;2023-09-07T00:29:59;5.15;;;4.03;;
33844;SDS011;20145;43.118;25.694;2023-09-07T00:32:24;6.43;;;4.20;;
33844;SDS011;20145;43.118;25.694;2023-09-07T00:34:50;8.10;;;4.68;;
33844;SDS011;20145;43.118;25.694;2023-09-07T00:37:16;5.03;;;3.55;;
33844;SDS011;20145;43.118;25.694;2023-09-07T00:39:41;9.10;;;4.47;;
33844;SDS011;20145;43.118;25.694;2023-09-07T00:42:07;6.32;;;4.13;;
33844;SDS011;20145;43.118;25.694;2023-09-07T00:44:32;6.72;;;4.28;;
33844;SDS011;20145;43.118;25.694;2023-09-07T00:46:58;4.68;;;4.22;;
33844;SDS011;20145;43.118;25.694;2023-09-07T00:49:24;5.75;;;4.07;;
33844;SDS011;20145;43.118;25.694;2023-09-07T00:51:50;5.45;;;4.25;;
33844;SDS011;20145;43.118;25.694;2023-09-07T00:54:17;7.95;;;4.95;;
33844;SDS011;20145;43.118;25.694;2023-09-07T00:56:43;6.10;;;4.07;;
33844;SDS011;20145;43.118;25.694;2023-09-07T00:59:09;6.90;;;4.13;;
33844;SDS011;20145;43.118;25.694;2023-09-07T01:01:36;7.07;;;4.20;;
33844;SDS011;20145;43.118;25.694;2023-09-07T01:04:02;4.97;;;3.92;;
33844;SDS011;20145;43.118;25.694;2023-09-07T01:06:37;10.15;;;4.70;;
33844;SDS011;20145;43.118;25.694;2023-09-07T01:09:08;6.75;;;4.00;;
33844;SDS011;20145;43.118;25.694;2023-09-07T01:11:44;6.50;;;4.40;;
33844;SDS011;20145;43.118;25.694;2023-09-07T01:14:09;7.15;;;4.15;;
33844;SDS011;20145;43.118;25.694;2023-09-07T01:16:35;8.82;;;4.47;;
33844;SDS011;20145;43.118;25.694;2023-09-07T01:19:04;6.40;;;4.25;;
33844;SDS011;20145;43.118;25.694;2023-09-07T01:21:34;7.85;;;3.78;;
33844;SDS011;20145;43.118;25.694;2023-09-07T01:24:00;6.90;;;4.22;;
33844;SDS011;20145;43.118;25.694;2023-09-07T01:26:28;4.85;;;4.32;;
33844;SDS011;20145;43.118;25.694;2023-09-07T01:28:54;8.27;;;4.22;;
33844;SDS011;20145;43.118;25.694;2023-09-07T01:31:19;8.48;;;5.03;;
33844;SDS011;20145;43.118;25.694;2023-09-07T01:33:45;5.75;;;4.32;;
33844;SDS011;20145;43.118;25.694;2023-09-07T01:36:10;6.38;;;4.40;;
33844;SDS011;20145;43.118;25.694;2023-09-07T01:38:36;8.52;;;4.80;;
33844;SDS011;20145;43.118;25.694;2023-09-07T01:41:02;9.02;;;3.72;;
33844;SDS011;20145;43.118;25.694;2023-09-07T01:43:27;5.20;;;4.57;;
33844;SDS011;20145;43.118;25.694;2023-09-07T01:45:53;6.53;;;4.18;;
33844;SDS011;20145;43.118;25.694;2023-09-07T01:48:18;8.98;;;4.30;;
33844;SDS011;20145;43.118;25.694;2023-09-07T01:50:44;8.82;;;4.82;;
33844;SDS011;20145;43.118;25.694;2023-09-07T01:53:09;7.65;;;4.32;;
33844;SDS011;20145;43.118;25.694;2023-09-07T01:55:35;9.65;;;4.32;;
33844;SDS011;20145;43.118;25.694;2023-09-07T01:58:00;5.75;;;4.20;;
33844;SDS011;20145;43.118;25.694;2023-09-07T02:00:26;9.82;;;5.22;;
33844;SDS011;20145;43.118;25.694;2023-09-07T02:02:51;8.98;;;4.80;;
33844;SDS011;20145;43.118;25.694;2023-09-07T02:05:17;6.55;;;4.80;;
33844;SDS011;20145;43.118;25.694;2023-09-07T02:07:43;5.63;;;4.55;;
33844;SDS011;20145;43.118;25.694;2023-09-07T02:10:08;6.20;;;4.85;;
33844;SDS011;20145;43.118;25.694;2023-09-07T02:12:34;6.85;;;4.75;;
33844;SDS011;20145;43.118;25.694;2023-09-07T02:15:01;7.60;;;5.47;;
33844;SDS011;20145;43.118;25.694;2023-09-07T02:17:28;6.68;;;4.43;;
33844;SDS011;20145;43.118;25.694;2023-09-07T02:19:55;6.35;;;5.65;;
33844;SDS011;20145;43.118;25.694;2023-09-07T02:22:20;9.18;;;4.93;;
33844;SDS011;20145;43.118;25.694;2023-09-07T02:24:46;6.15;;;5.55;;
33844;SDS011;20145;43.118;25.694;2023-09-07T02:27:11;7.72;;;4.85;;
33844;SDS011;20145;43.118;25.694;2023-09-07T02:29:37;8.52;;;5.10;;
33844;SDS011;20145;43.118;25.694;2023-09-07T02:32:03;5.30;;;4.80;;
33844;SDS011;20145;43.118;25.694;2023-09-07T02:34:29;6.10;;;4.90;;
33844;SDS011;20145;43.118;25.694;2023-09-07T02:36:55;5.88;;;5.30;;
33844;SDS011;20145;43.118;25.694;2023-09-07T02:39:22;6.32;;;5.32;;
33844;SDS011;20145;43.118;25.694;2023-09-07T02:41:51;5.32;;;4.82;;
33844;SDS011;20145;43.118;25.694;2023-09-07T02:44:17;6.07;;;5.00;;
33844;SDS011;20145;43.118;25.694;2023-09-07T02:46:43;5.78;;;5.10;;
33844;SDS011;20145;43.118;25.694;2023-09-07T02:49:08;5.80;;;5.15;;
33844;SDS011;20145;43.118;25.694;2023-09-07T02:51:34;6.60;;;5.10;;
33844;SDS011;20145;43.118;25.694;2023-09-07T02:54:01;8.45;;;5.57;;
33844;SDS011;20145;43.118;25.694;2023-09-07T02:56:27;5.85;;;4.88;;
33844;SDS011;20145;43.118;25.694;2023-09-07T02:58:52;6.03;;;5.00;;
33844;SDS011;20145;43.118;25.694;2023-09-07T03:01:18;8.00;;;6.32;;
33844;SDS011;20145;43.118;25.694;2023-09-07T03:03:46;9.93;;;5.78;;
33844;SDS011;20145;43.118;25.694;2023-09-07T03:06:12;10.85;;;5.82;;
33844;SDS011;20145;43.118;25.694;2023-09-07T03:08:39;7.85;;;5.20;;
33844;SDS011;20145;43.118;25.694;2023-09-07T03:11:06;8.88;;;5.97;;
33844;SDS011;20145;43.118;25.694;2023-09-07T03:13:32;9.38;;;5.90;;
33844;SDS011;20145;43.118;25.694;2023-09-07T03:15:58;8.27;;;5.10;;
33844;SDS011;20145;43.118;25.694;2023-09-07T03:18:25;6.25;;;4.80;;
33844;SDS011;20145;43.118;25.694;2023-09-07T03:20:53;7.20;;;6.22;;
33844;SDS011;20145;43.118;25.694;2023-09-07T03:26:31;8.55;;;5.95;;
33844;SDS011;20145;43.118;25.694;2023-09-07T03:28:56;6.35;;;5.68;;
33844;SDS011;20145;43.118;25.694;2023-09-07T03:31:22;9.82;;;6.40;;
33844;SDS011;20145;43.118;25.694;2023-09-07T03:33:48;9.23;;;6.05;;
33844;SDS011;20145;43.118;25.694;2023-09-07T03:36:14;6.93;;;5.55;;
33844;SDS011;20145;43.118;25.694;2023-09-07T03:38:41;7.18;;;5.63;;
33844;SDS011;20145;43.118;25.694;2023-09-07T03:41:06;17.42;;;5.85;;
33844;SDS011;20145;43.118;25.694;2023-09-07T03:43:32;8.15;;;5.55;;
33844;SDS011;20145;43.118;25.694;2023-09-07T03:45:58;9.77;;;6.00;;
33844;SDS011;20145;43.118;25.694;2023-09-07T03:48:23;6.13;;;5.55;;
33844;SDS011;20145;43.118;25.694;2023-09-07T03:50:49;7.97;;;5.40;;
33844;SDS011;20145;43.118;25.694;2023-09-07T03:53:15;15.63;;;6.53;;
33844;SDS011;20145;43.118;25.694;2023-09-07T03:55:41;12.18;;;5.57;;
33844;SDS011;20145;43.118;25.694;2023-09-07T03:58:08;10.60;;;5.97;;
33844;SDS011;20145;43.118;25.694;2023-09-07T04:00:39;8.43;;;6.30;;
33844;SDS011;20145;43.118;25.694;2023-09-07T04:03:06;7.63;;;6.30;;
33844;SDS011;20145;43.118;25.694;2023-09-07T04:05:32;7.53;;;5.93;;
33844;SDS011;20145;43.118;25.694;2023-09-07T04:07:58;8.90;;;6.05;;
33844;SDS011;20145;43.118;25.694;2023-09-07T04:10:25;10.65;;;6.78;;
33844;SDS011;20145;43.118;25.694;2023-09-07T04:12:51;11.57;;;7.18;;
33844;SDS011;20145;43.118;25.694;2023-09-07T04:15:16;11.75;;;6.30;;
33844;SDS011;20145;43.118;25.694;2023-09-07T04:17:42;7.68;;;5.72;;
33844;SDS011;20145;43.118;25.694;2023-09-07T04:20:08;6.72;;;6.00;;
33844;SDS011;20145;43.118;25.694;2023-09-07T04:22:34;8.45;;;5.97;;
33844;SDS011;20145;43.118;25.694;2023-09-07T04:25:00;9.35;;;6.15;;
33844;SDS011;20145;43.118;25.694;2023-09-07T04:27:26;7.03;;;5.57;;
33844;SDS011;20145;43.118;25.694;2023-09-07T04:29:52;6.93;;;5.82;;
33844;SDS011;20145;43.118;25.694;2023-09-07T04:32:18;9.05;;;5.95;;
33844;SDS011;20145;43.118;25.694;2023-09-07T04:34:44;10.07;;;5.55;;
33844;SDS011;20145;43.118;25.694;2023-09-07T04:37:11;7.28;;;5.60;;
33844;SDS011;20145;43.118;25.694;2023-09-07T04:39:36;10.65;;;5.85;;
33844;SDS011;20145;43.118;25.694;2023-09-07T04:42:02;13.88;;;7.07;;
33844;SDS011;20145;43.118;25.694;2023-09-07T04:44:28;19.75;;;5.97;;
33844;SDS011;20145;43.118;25.694;2023-09-07T04:46:56;9.23;;;5.85;;
33844;SDS011;20145;43.118;25.694;2023-09-07T04:49:25;11.70;;;6.05;;
33844;SDS011;20145;43.118;25.694;2023-09-07T04:51:54;14.20;;;8.05;;
33844;SDS011;20145;43.118;25.694;2023-09-07T04:54:20;12.55;;;6.63;;
33844;SDS011;20145;43.118;25.694;2023-09-07T04:56:45;17.48;;;6.75;;
33844;SDS011;20145;43.118;25.694;2023-09-07T04:59:24;15.60;;;6.88;;
33844;SDS011;20145;43.118;25.694;2023-09-07T05:05:20;21.33;;;7.70;;
33844;SDS011;20145;43.118;25.694;2023-09-07T05:07:45;15.57;;;6.85;;
33844;SDS011;20145;43.118;25.694;2023-09-07T05:10:11;13.63;;;7.65;;
33844;SDS011;20145;43.118;25.694;2023-09-07T05:12:37;13.00;;;7.50;;
33844;SDS011;20145;43.118;25.694;2023-09-07T05:15:04;18.38;;;7.05;;
33844;SDS011;20145;43.118;25.694;2023-09-07T05:17:32;12.85;;;7.68;;
33844;SDS011;20145;43.118;25.694;2023-09-07T05:19:57;15.35;;;9.88;;
33844;SDS011;20145;43.118;25.694;2023-09-07T05:25:44;10.35;;;6.82;;
33844;SDS011;20145;43.118;25.694;2023-09-07T05:28:12;12.73;;;7.30;;
33844;SDS011;20145;43.118;25.694;2023-09-07T05:30:38;15.15;;;7.05;;
33844;SDS011;20145;43.118;25.694;2023-09-07T05:33:04;11.40;;;7.47;;
33844;SDS011;20145;43.118;25.694;2023-09-07T05:35:30;8.55;;;6.90;;
33844;SDS011;20145;43.118;25.694;2023-09-07T05:37:57;9.75;;;6.43;;
33844;SDS011;20145;43.118;25.694;2023-09-07T05:40:23;9.27;;;6.15;;
33844;SDS011;20145;43.118;25.694;2023-09-07T05:42:49;14.23;;;6.88;;
33844;SDS011;20145;43.118;25.694;2023-09-07T05:45:15;24.92;;;8.10;;
33844;SDS011;20145;43.118;25.694;2023-09-07T05:47:40;9.68;;;6.47;;
33844;SDS011;20145;43.118;25.694;2023-09-07T05:50:06;8.68;;;6.43;;
33844;SDS011;20145;43.118;25.694;2023-09-07T05:52:32;10.18;;;6.20;;
33844;SDS011;20145;43.118;25.694;2023-09-07T05:54:57;12.52;;;7.30;;
33844;SDS011;20145;43.118;25.694;2023-09-07T05:57:23;10.85;;;6.90;;
33844;SDS011;20145;43.118;25.694;2023-09-07T05:59:48;10.25;;;7.10;;
33844;SDS011;20145;43.118;25.694;2023-09-07T06:02:14;9.93;;;7.20;;
33844;SDS011;20145;43.118;25.694;2023-09-07T06:04:39;11.77;;;6.70;;
33844;SDS011;20145;43.118;25.694;2023-09-07T06:07:05;9.23;;;7.13;;
33844;SDS011;20145;43.118;25.694;2023-09-07T06:09:31;10.13;;;6.10;;
33844;SDS011;20145;43.118;25.694;2023-09-07T06:11:56;8.57;;;6.43;;
33844;SDS011;20145;43.118;25.694;2023-09-07T06:14:22;9.02;;;6.60;;
33844;SDS011;20145;43.118;25.694;2023-09-07T06:16:47;10.65;;;5.93;;
33844;SDS011;20145;43.118;25.694;2023-09-07T06:19:13;11.55;;;6.30;;
33844;SDS011;20145;43.118;25.694;2023-09-07T06:21:38;15.00;;;5.57;;
33844;SDS011;20145;43.118;25.694;2023-09-07T06:24:04;8.77;;;5.03;;
33844;SDS011;20145;43.118;25.694;2023-09-07T06:26:32;9.00;;;5.45;;
33844;SDS011;20145;43.118;25.694;2023-09-07T06:28:57;5.97;;;5.38;;
33844;SDS011;20145;43.118;25.694;2023-09-07T06:31:23;11.73;;;5.35;;
33844;SDS011;20145;43.118;25.694;2023-09-07T06:33:48;7.10;;;5.30;;
33844;SDS011;20145;43.118;25.694;2023-09-07T06:36:14;10.90;;;6.20;;
33844;SDS011;20145;43.118;25.694;2023-09-07T06:38:39;7.38;;;5.32;;
33844;SDS011;20145;43.118;25.694;2023-09-07T06:41:05;8.60;;;6.07;;
33844;SDS011;20145;43.118;25.694;2023-09-07T06:43:32;12.55;;;6.28;;
33844;SDS011;20145;43.118;25.694;2023-09-07T06:46:07;8.88;;;5.63;;
33844;SDS011;20145;43.118;25.694;2023-09-07T06:48:34;8.13;;;5.75;;
33844;SDS011;20145;43.118;25.694;2023-09-07T06:51:03;8.77;;;5.30;;
33844;SDS011;20145;43.118;25.694;2023-09-07T06:53:30;8.55;;;5.38;;
33844;SDS011;20145;43.118;25.694;2023-09-07T06:55:59;9.65;;;5.28;;
33844;SDS011;20145;43.118;25.694;2023-09-07T06:58:25;8.55;;;6.10;;
33844;SDS011;20145;43.118;25.694;2023-09-07T07:00:51;8.45;;;5.15;;
33844;SDS011;20145;43.118;25.694;2023-09-07T07:03:16;10.50;;;5.30;;
33844;SDS011;20145;43.118;25.694;2023-09-07T07:05:42;10.80;;;5.40;;
33844;SDS011;20145;43.118;25.694;2023-09-07T07:08:09;9.57;;;5.35;;
33844;SDS011;20145;43.118;25.694;2023-09-07T07:10:34;6.88;;;4.75;;
33844;SDS011;20145;43.118;25.694;2023-09-07T07:13:00;9.80;;;4.95;;
33844;SDS011;20145;43.118;25.694;2023-09-07T07:15:25;7.25;;;4.97;;
33844;SDS011;20145;43.118;25.694;2023-09-07T07:17:51;7.22;;;4.90;;
33844;SDS011;20145;43.118;25.694;2023-09-07T07:20:17;11.30;;;4.70;;
33844;SDS011;20145;43.118;25.694;2023-09-07T07:22:42;7.40;;;5.03;;
33844;SDS011;20145;43.118;25.694;2023-09-07T07:25:08;9.82;;;4.72;;
33844;SDS011;20145;43.118;25.694;2023-09-07T07:27:33;6.88;;;5.18;;
33844;SDS011;20145;43.118;25.694;2023-09-07T07:29:59;9.18;;;5.00;;
33844;SDS011;20145;43.118;25.694;2023-09-07T07:32:25;7.32;;;5.00;;
33844;SDS011;20145;43.118;25.694;2023-09-07T07:34:50;16.13;;;5.38;;
33844;SDS011;20145;43.118;25.694;2023-09-07T07:37:16;9.30;;;4.30;;
33844;SDS011;20145;43.118;25.694;2023-09-07T07:39:41;6.38;;;5.38;;
33844;SDS011;20145;43.118;25.694;2023-09-07T07:42:07;12.02;;;6.10;;
33844;SDS011;20145;43.118;25.694;2023-09-07T07:44:32;12.00;;;5.43;;
33844;SDS011;20145;43.118;25.694;2023-09-07T07:46:58;17.25;;;5.47;;
33844;SDS011;20145;43.118;25.694;2023-09-07T07:49:23;16.73;;;5.38;;
33844;SDS011;20145;43.118;25.694;2023-09-07T07:51:49;10.02;;;5.47;;
33844;SDS011;20145;43.118;25.694;2023-09-07T07:54:16;15.88;;;5.72;;
33844;SDS011;20145;43.118;25.694;2023-09-07T07:56:42;5.93;;;5.32;;
33844;SDS011;20145;43.118;25.694;2023-09-07T07:59:08;7.60;;;4.97;;
33844;SDS011;20145;43.118;25.694;2023-09-07T08:01:33;10.73;;;6.15;;
33844;SDS011;20145;43.118;25.694;2023-09-07T08:03:59;15.68;;;5.55;;
33844;SDS011;20145;43.118;25.694;2023-09-07T08:06:24;10.45;;;6.00;;
33844;SDS011;20145;43.118;25.694;2023-09-07T08:08:50;9.55;;;5.50;;
33844;SDS011;20145;43.118;25.694;2023-09-07T08:11:15;10.73;;;5.60;;
33844;SDS011;20145;43.118;25.694;2023-09-07T08:13:41;11.15;;;6.10;;
33844;SDS011;20145;43.118;25.694;2023-09-07T08:16:10;9.70;;;5.40;;
33844;SDS011;20145;43.118;25.694;2023-09-07T08:18:36;9.35;;;5.60;;
33844;SDS011;20145;43.118;25.694;2023-09-07T08:21:01;7.65;;;5.78;;
33844;SDS011;20145;43.118;25.694;2023-09-07T08:23:27;8.48;;;5.88;;
33844;SDS011;20145;43.118;25.694;2023-09-07T08:25:53;8.93;;;5.63;;
33844;SDS011;20145;43.118;25.694;2023-09-07T08:28:19;11.90;;;5.57;;
33844;SDS011;20145;43.118;25.694;2023-09-07T08:30:50;9.32;;;5.03;;
33844;SDS011;20145;43.118;25.694;2023-09-07T08:33:20;9.00;;;5.72;;
33844;SDS011;20145;43.118;25.694;2023-09-07T08:35:54;9.98;;;5.32;;
33844;SDS011;20145;43.118;25.694;2023-09-07T08:38:20;7.88;;;5.38;;
33844;SDS011;20145;43.118;25.694;2023-09-07T08:40:50;10.52;;;5.57;;
33844;SDS011;20145;43.118;25.694;2023-09-07T08:43:16;13.85;;;5.25;;
33844;SDS011;20145;43.118;25.694;2023-09-07T08:45:50;7.68;;;5.72;;
33844;SDS011;20145;43.118;25.694;2023-09-07T08:48:23;5.75;;;5.10;;
33844;SDS011;20145;43.118;25.694;2023-09-07T08:50:50;12.25;;;5.75;;
33844;SDS011;20145;43.118;25.694;2023-09-07T08:53:18;9.48;;;5.55;;
33844;SDS011;20145;43.118;25.694;2023-09-07T08:55:44;10.20;;;5.80;;
33844;SDS011;20145;43.118;25.694;2023-09-07T08:58:10;10.25;;;5.20;;
33844;SDS011;20145;43.118;25.694;2023-09-07T09:00:36;8.15;;;5.20;;
33844;SDS011;20145;43.118;25.694;2023-09-07T09:03:02;6.93;;;4.88;;
33844;SDS011;20145;43.118;25.694;2023-09-07T09:05:28;7.40;;;5.07;;
33844;SDS011;20145;43.118;25.694;2023-09-07T09:08:05;13.07;;;5.40;;
33844;SDS011;20145;43.118;25.694;2023-09-07T09:10:31;7.07;;;5.32;;
33844;SDS011;20145;43.118;25.694;2023-09-07T09:12:56;8.18;;;5.30;;
33844;SDS011;20145;43.118;25.694;2023-09-07T09:15:24;7.15;;;5.20;;
33844;SDS011;20145;43.118;25.694;2023-09-07T09:17:52;15.15;;;5.57;;
33844;SDS011;20145;43.118;25.694;2023-09-07T09:22:52;10.88;;;5.25;;
33844;SDS011;20145;43.118;25.694;2023-09-07T09:25:18;13.02;;;5.20;;
33844;SDS011;20145;43.118;25.694;2023-09-07T09:27:44;9.27;;;4.82;;
33844;SDS011;20145;43.118;25.694;2023-09-07T09:30:10;6.10;;;5.10;;
33844;SDS011;20145;43.118;25.694;2023-09-07T09:32:36;9.15;;;4.53;;
33844;SDS011;20145;43.118;25.694;2023-09-07T09:35:03;10.70;;;5.30;;
33844;SDS011;20145;43.118;25.694;2023-09-07T09:37:30;10.15;;;4.60;;
33844;SDS011;20145;43.118;25.694;2023-09-07T09:39:56;7.40;;;4.82;;
33844;SDS011;20145;43.118;25.694;2023-09-07T09:42:25;8.18;;;4.47;;
33844;SDS011;20145;43.118;25.694;2023-09-07T09:44:52;8.45;;;4.75;;
33844;SDS011;20145;43.118;25.694;2023-09-07T09:47:19;5.82;;;4.47;;
33844;SDS011;20145;43.118;25.694;2023-09-07T09:49:46;10.30;;;4.72;;
33844;SDS011;20145;43.118;25.694;2023-09-07T09:52:14;5.68;;;4.68;;
33844;SDS011;20145;43.118;25.694;2023-09-07T09:54:40;5.93;;;4.18;;
33844;SDS011;20145;43.118;25.694;2023-09-07T09:57:07;7.70;;;4.97;;
33844;SDS011;20145;43.118;25.694;2023-09-07T09:59:33;10.77;;;5.10;;
33844;SDS011;20145;43.118;25.694;2023-09-07T10:01:59;8.02;;;4.45;;
33844;SDS011;20145;43.118;25.694;2023-09-07T10:04:27;4.78;;;4.32;;
33844;SDS011;20145;43.118;25.694;2023-09-07T10:07:00;6.07;;;4.20;;
33844;SDS011;20145;43.118;25.694;2023-09-07T10:09:33;10.25;;;4.43;;
33844;SDS011;20145;43.118;25.694;2023-09-07T10:12:01;6.53;;;4.57;;
33844;SDS011;20145;43.118;25.694;2023-09-07T10:14:37;4.63;;;4.13;;
33844;SDS011;20145;43.118;25.694;2023-09-07T10:17:04;7.15;;;4.57;;
33844;SDS011;20145;43.118;25.694;2023-09-07T10:22:31;7.75;;;4.57;;
33844;SDS011;20145;43.118;25.694;2023-09-07T10:25:30;6.88;;;3.92;;
33844;SDS011;20145;43.118;25.694;2023-09-07T10:27:49;6.93;;;4.35;;
33844;SDS011;20145;43.118;25.694;2023-09-07T10:30:15;4.93;;;4.32;;
33844;SDS011;20145;43.118;25.694;2023-09-07T10:32:49;10.13;;;4.68;;
33844;SDS011;20145;43.118;25.694;2023-09-07T10:35:15;7.95;;;4.95;;
33844;SDS011;20145;43.118;25.694;2023-09-07T10:37:46;7.80;;;4.50;;
33844;SDS011;20145;43.118;25.694;2023-09-07T10:40:12;10.68;;;4.43;;
33844;SDS011;20145;43.118;25.694;2023-09-07T10:42:39;6.68;;;3.95;;
33844;SDS011;20145;43.118;25.694;2023-09-07T10:45:12;8.40;;;4.72;;
33844;SDS011;20145;43.118;25.694;2023-09-07T10:47:43;5.53;;;4.10;;
33844;SDS011;20145;43.118;25.694;2023-09-07T10:50:10;5.47;;;4.15;;
33844;SDS011;20145;43.118;25.694;2023-09-07T10:52:38;4.78;;;4.25;;
33844;SDS011;20145;43.118;25.694;2023-09-07T10:55:07;6.93;;;4.40;;
33844;SDS011;20145;43.118;25.694;2023-09-07T10:57:44;5.85;;;4.63;;
33844;SDS011;20145;43.118;25.694;2023-09-07T11:00:11;6.63;;;4.38;;
33844;SDS011;20145;43.118;25.694;2023-09-07T11:02:38;7.30;;;4.05;;
33844;SDS011;20145;43.118;25.694;2023-09-07T11:05:05;8.68;;;4.45;;
33844;SDS011;20145;43.118;25.694;2023-09-07T11:07:32;5.97;;;4.40;;
33844;SDS011;20145;43.118;25.694;2023-09-07T11:09:58;6.90;;;4.57;;
33844;SDS011;20145;43.118;25.694;2023-09-07T11:12:24;7.40;;;3.78;;
33844;SDS011;20145;43.118;25.694;2023-09-07T11:14:50;4.72;;;4.07;;
33844;SDS011;20145;43.118;25.694;2023-09-07T11:17:17;6.15;;;4.55;;
33844;SDS011;20145;43.118;25.694;2023-09-07T11:19:43;9.85;;;4.70;;
33844;SDS011;20145;43.118;25.694;2023-09-07T11:22:11;5.47;;;4.57;;
33844;SDS011;20145;43.118;25.694;2023-09-07T11:24:37;4.88;;;4.40;;
33844;SDS011;20145;43.118;25.694;2023-09-07T11:27:03;7.45;;;4.30;;
33844;SDS011;20145;43.118;25.694;2023-09-07T11:29:31;7.47;;;4.28;;
33844;SDS011;20145;43.118;25.694;2023-09-07T11:32:09;5.68;;;4.05;;
33844;SDS011;20145;43.118;25.694;2023-09-07T11:34:49;8.23;;;4.28;;
33844;SDS011;20145;43.118;25.694;2023-09-07T11:37:15;6.97;;;4.20;;
33844;SDS011;20145;43.118;25.694;2023-09-07T11:39:42;8.63;;;4.40;;
33844;SDS011;20145;43.118;25.694;2023-09-07T11:42:08;6.68;;;4.07;;
33844;SDS011;20145;43.118;25.694;2023-09-07T11:44:33;8.07;;;3.90;;
33844;SDS011;20145;43.118;25.694;2023-09-07T11:46:59;9.02;;;4.53;;
33844;SDS011;20145;43.118;25.694;2023-09-07T11:49:25;7.38;;;4.22;;
33844;SDS011;20145;43.118;25.694;2023-09-07T11:51:50;7.10;;;4.20;;
33844;SDS011;20145;43.118;25.694;2023-09-07T11:54:16;6.22;;;4.22;;
33844;SDS011;20145;43.118;25.694;2023-09-07T11:56:41;6.97;;;4.10;;
33844;SDS011;20145;43.118;25.694;2023-09-07T11:59:09;10.70;;;4.13;;
33844;SDS011;20145;43.118;25.694;2023-09-07T12:01:35;4.72;;;4.10;;
33844;SDS011;20145;43.118;25.694;2023-09-07T12:04:00;6.82;;;4.10;;
33844;SDS011;20145;43.118;25.694;2023-09-07T12:06:26;7.13;;;4.13;;
33844;SDS011;20145;43.118;25.694;2023-09-07T12:09:05;5.13;;;4.47;;
33844;SDS011;20145;43.118;25.694;2023-09-07T12:11:35;9.07;;;4.18;;
33844;SDS011;20145;43.118;25.694;2023-09-07T12:14:01;6.05;;;4.53;;
33844;SDS011;20145;43.118;25.694;2023-09-07T12:16:28;6.15;;;4.00;;
33844;SDS011;20145;43.118;25.694;2023-09-07T12:18:54;6.88;;;4.35;;
33844;SDS011;20145;43.118;25.694;2023-09-07T12:21:20;8.43;;;4.10;;
33844;SDS011;20145;43.118;25.694;2023-09-07T12:23:46;9.75;;;4.18;;
33844;SDS011;20145;43.118;25.694;2023-09-07T12:26:12;10.55;;;4.55;;
33844;SDS011;20145;43.118;25.694;2023-09-07T12:28:39;5.97;;;3.85;;
33844;SDS011;20145;43.118;25.694;2023-09-07T12:31:05;7.35;;;4.20;;
33844;SDS011;20145;43.118;25.694;2023-09-07T12:33:30;4.65;;;4.20;;
33844;SDS011;20145;43.118;25.694;2023-09-07T12:35:57;9.55;;;4.53;;
33844;SDS011;20145;43.118;25.694;2023-09-07T12:38:27;7.45;;;4.30;;
33844;SDS011;20145;43.118;25.694;2023-09-07T12:40:55;5.65;;;4.40;;
33844;SDS011;20145;43.118;25.694;2023-09-07T12:43:20;6.63;;;4.55;;
33844;SDS011;20145;43.118;25.694;2023-09-07T12:45:46;5.78;;;4.40;;
33844;SDS011;20145;43.118;25.694;2023-09-07T12:48:12;11.43;;;4.88;;
33844;SDS011;20145;43.118;25.694;2023-09-07T12:50:37;7.50;;;4.45;;
33844;SDS011;20145;43.118;25.694;2023-09-07T12:53:05;6.68;;;4.10;;
33844;SDS011;20145;43.118;25.694;2023-09-07T12:55:31;8.55;;;4.38;;
33844;SDS011;20145;43.118;25.694;2023-09-07T12:57:58;8.52;;;4.63;;
33844;SDS011;20145;43.118;25.694;2023-09-07T13:00:24;8.90;;;4.13;;
33844;SDS011;20145;43.118;25.694;2023-09-07T13:02:49;4.90;;;3.92;;
33844;SDS011;20145;43.118;25.694;2023-09-07T13:05:15;9.45;;;4.53;;
33844;SDS011;20145;43.118;25.694;2023-09-07T13:07:51;4.50;;;3.92;;
33844;SDS011;20145;43.118;25.694;2023-09-07T13:10:34;6.53;;;4.32;;
33844;SDS011;20145;43.118;25.694;2023-09-07T13:13:01;15.13;;;4.68;;
33844;SDS011;20145;43.118;25.694;2023-09-07T13:15:26;7.35;;;4.57;;
33844;SDS011;20145;43.118;25.694;2023-09-07T13:17:52;6.93;;;4.18;;
33844;SDS011;20145;43.118;25.694;2023-09-07T13:20:18;12.10;;;4.00;;
33844;SDS011;20145;43.118;25.694;2023-09-07T13:22:45;7.88;;;4.35;;
33844;SDS011;20145;43.118;25.694;2023-09-07T13:25:11;7.13;;;4.63;;
33844;SDS011;20145;43.118;25.694;2023-09-07T13:27:37;5.50;;;4.15;;
33844;SDS011;20145;43.118;25.694;2023-09-07T13:30:03;9.30;;;4.72;;
33844;SDS011;20145;43.118;25.694;2023-09-07T13:32:30;6.72;;;4.75;;
33844;SDS011;20145;43.118;25.694;2023-09-07T13:35:01;6.30;;;4.45;;
33844;SDS011;20145;43.118;25.694;2023-09-07T13:37:27;8.30;;;4.95;;
33844;SDS011;20145;43.118;25.694;2023-09-07T13:39:53;6.35;;;4.20;;
33844;SDS011;20145;43.118;25.694;2023-09-07T13:42:18;6.80;;;3.95;;
33844;SDS011;20145;43.118;25.694;2023-09-07T13:44:44;4.47;;;3.92;;
33844;SDS011;20145;43.118;25.694;2023-09-07T13:47:12;4.38;;;3.97;;
33844;SDS011;20145;43.118;25.694;2023-09-07T13:49:38;5.65;;;4.90;;
33844;SDS011;20145;43.118;25.694;2023-09-07T13:52:04;5.55;;;4.60;;
33844;SDS011;20145;43.118;25.694;2023-09-07T13:54:29;7.30;;;4.32;;
33844;SDS011;20145;43.118;25.694;2023-09-07T13:56:55;7.43;;;4.30;;
33844;SDS011;20145;43.118;25.694;2023-09-07T13:59:21;4.95;;;4.13;;
33844;SDS011;20145;43.118;25.694;2023-09-07T14:01:47;6.55;;;4.38;;
33844;SDS011;20145;43.118;25.694;2023-09-07T14:04:14;6.82;;;3.85;;
33844;SDS011;20145;43.118;25.694;2023-09-07T14:06:39;8.57;;;4.07;;
33844;SDS011;20145;43.118;25.694;2023-09-07T14:09:05;9.00;;;4.28;;
33844;SDS011;20145;43.118;25.694;2023-09-07T14:11:31;8.35;;;4.90;;
33844;SDS011;20145;43.118;25.694;2023-09-07T14:13:58;4.90;;;4.10;;
33844;SDS011;20145;43.118;25.694;2023-09-07T14:16:24;6.50;;;3.80;;
33844;SDS011;20145;43.118;25.694;2023-09-07T14:18:50;6.32;;;3.60;;
33844;SDS011;20145;43.118;25.694;2023-09-07T14:21:16;4.85;;;3.70;;
33844;SDS011;20145;43.118;25.694;2023-09-07T14:23:42;7.03;;;3.97;;
33844;SDS011;20145;43.118;25.694;2023-09-07T14:26:08;6.88;;;3.83;;
33844;SDS011;20145;43.118;25.694;2023-09-07T14:28:34;7.10;;;3.78;;
33844;SDS011;20145;43.118;25.694;2023-09-07T14:31:00;6.82;;;3.63;;
33844;SDS011;20145;43.118;25.694;2023-09-07T14:33:29;5.00;;;3.95;;
33844;SDS011;20145;43.118;25.694;2023-09-07T14:35:55;6.85;;;3.78;;
33844;SDS011;20145;43.118;25.694;2023-09-07T14:38:21;9.35;;;4.47;;
33844;SDS011;20145;43.118;25.694;2023-09-07T14:40:48;5.50;;;4.30;;
33844;SDS011;20145;43.118;25.694;2023-09-07T14:43:15;7.90;;;4.10;;